Weather at Chambéry-Challes-les-Eaux Airport

Public forecast

Using degrees Celsius for public forecast. Weather courtesy of forecast.io.

Closest aviation weather report (METAR) to Chambéry-Challes-les-Eaux Airport

Closest report is Chambéry-Savoie Airport, 6.1 nm (11.3 km) NW. Retrieved 2020/10/28 14:30 UTC (0 seconds ago):

LFLB 281430Z AUTO 18007KT 170V230 9999 SCT074 BKN088 15/10 Q1018 TEMPO SHRA SCT035TCU

Closest aviation forecast (TAF) to Chambéry-Challes-les-Eaux Airport

Closest forecast is Chambéry-Savoie Airport, 6.1 nm (11.3 km) NW. Retrieved 2020/10/28 09:49 UTC (4 hours ago):

TAF LFLB 280800Z 2809/2909 18012KT 9999 FEW015 BKN040 PROB40 TEMPO 2815/2819 SHRA SCT035TCU TEMPO 2901/2906 5000 -RA